Time;durP1;ratioP1;P1;durP2;ratioP2;P2;SDS_P1;SDS_P2;PMS_P1;PMS_P2;Temp;Humidity;BMP_temperature;BMP_pressure;BME280_temperature;BME280_humidity;BME280_pressure;Samples;Min_cycle;Max_cycle;Signal;HPM_P1;HPM_P2
2023/01/15 00:01:20;;;;;;;68.78;29.63;;;;;;;5.15;100.00;98181.44;5010605;28;20036;-81
2023/01/15 00:03:46;;;;;;;58.80;26.70;;;;;;;4.96;100.00;98159.91;5045336;28;20033;-81
2023/01/15 00:06:11;;;;;;;64.35;27.88;;;;;;;5.01;100.00;98167.75;5048946;28;20031;-81
2023/01/15 00:08:37;;;;;;;52.78;26.95;;;;;;;5.06;100.00;98176.41;5012808;28;20026;-82
2023/01/15 00:11:03;;;;;;;54.88;26.38;;;;;;;5.10;100.00;98178.94;5028704;28;20028;-80
2023/01/15 00:13:29;;;;;;;57.80;26.45;;;;;;;5.14;100.00;98171.72;5013836;28;20485;-81
2023/01/15 00:16:08;;;;;;;62.05;27.55;;;;;;;5.12;100.00;98169.13;5016569;28;20112;-81
2023/01/15 00:18:34;;;;;;;55.05;25.38;;;;;;;5.09;100.00;98158.63;5015747;28;20028;-81
2023/01/15 00:21:04;;;;;;;54.65;24.50;;;;;;;5.11;100.00;98166.53;5012164;28;20041;-82
2023/01/15 00:29:00;;;;;;;49.35;22.88;;;;;;;5.10;100.00;98160.38;5026070;28;20067;-82
2023/01/15 00:31:26;;;;;;;55.75;23.38;;;;;;;5.11;100.00;98163.88;5025283;28;20049;-82
2023/01/15 00:33:52;;;;;;;49.75;22.88;;;;;;;5.09;100.00;98152.47;5029316;28;20037;-81
2023/01/15 00:36:18;;;;;;;51.00;24.42;;;;;;;5.16;100.00;98167.28;5012855;28;20182;-81
2023/01/15 00:38:43;;;;;;;51.08;23.95;;;;;;;5.07;100.00;98156.94;5009938;28;20032;-81
2023/01/15 00:41:09;;;;;;;57.97;26.73;;;;;;;5.16;100.00;98165.50;5027930;28;20025;-80
2023/01/15 00:43:34;;;;;;;53.38;23.65;;;;;;;5.20;100.00;98168.94;5012098;28;20031;-81
2023/01/15 00:46:00;;;;;;;52.72;24.45;;;;;;;5.14;100.00;98158.47;5028400;28;20483;-81
2023/01/15 00:48:25;;;;;;;55.08;24.95;;;;;;;5.08;100.00;98153.34;5028119;28;20508;-81
2023/01/15 00:50:51;;;;;;;50.05;24.63;;;;;;;5.04;100.00;98155.25;5028891;28;20038;-81
2023/01/15 00:53:17;;;;;;;59.60;26.15;;;;;;;5.06;100.00;98155.19;5028992;28;20033;-81
2023/01/15 00:55:43;;;;;;;52.70;26.33;;;;;;;5.03;100.00;98156.16;5047511;28;20080;-81
2023/01/15 00:58:08;;;;;;;54.45;24.48;;;;;;;5.07;100.00;98151.66;5030401;28;20029;-81
2023/01/15 01:00:35;;;;;;;60.55;24.45;;;;;;;5.13;100.00;98156.75;5013108;28;20076;-81
2023/01/15 01:03:01;;;;;;;56.47;23.92;;;;;;;5.11;100.00;98150.63;5012815;28;20025;-82
2023/01/15 01:05:26;;;;;;;57.05;24.85;;;;;;;5.11;100.00;98142.66;5029277;28;20033;-81
2023/01/15 01:07:52;;;;;;;50.45;24.17;;;;;;;5.16;100.00;98152.22;5012835;28;20075;-82
2023/01/15 01:10:17;;;;;;;59.15;24.90;;;;;;;5.20;100.00;98150.38;5030862;28;20057;-81
2023/01/15 01:12:43;;;;;;;59.95;26.50;;;;;;;5.22;100.00;98146.75;5014655;28;20032;-82
2023/01/15 01:15:09;;;;;;;58.00;26.63;;;;;;;5.22;100.00;98146.75;5031111;28;20045;-82
2023/01/15 01:17:37;;;;;;;62.60;26.85;;;;;;;5.27;100.00;98151.88;5026665;28;20104;-82
2023/01/15 01:20:03;;;;;;;61.67;28.15;;;;;;;5.28;100.00;98158.94;5027280;28;20025;-81
2023/01/15 01:22:32;;;;;;;60.13;27.55;;;;;;;5.17;100.00;98151.31;5010378;28;20528;-81
2023/01/15 01:24:57;;;;;;;56.20;27.05;;;;;;;5.24;100.00;98157.28;5028872;28;20025;-81
2023/01/15 01:27:23;;;;;;;58.88;27.48;;;;;;;5.29;100.00;98147.44;5012027;28;20060;-82
2023/01/15 01:29:49;;;;;;;59.92;25.92;;;;;;;5.27;100.00;98143.94;5029251;28;20056;-83
2023/01/15 01:32:14;;;;;;;66.18;29.00;;;;;;;5.17;100.00;98132.75;5027727;28;20033;-82
2023/01/15 01:34:40;;;;;;;60.78;29.25;;;;;;;5.19;100.00;98135.34;5027502;28;20036;-82
2023/01/15 01:37:05;;;;;;;71.15;30.15;;;;;;;5.22;100.00;98129.97;5045158;28;20021;-82
2023/01/15 01:39:31;;;;;;;62.13;28.98;;;;;;;5.25;100.00;98140.47;5022489;28;20057;-82
2023/01/15 01:41:56;;;;;;;71.18;31.05;;;;;;;5.23;100.00;98135.19;5021305;28;20017;-82
2023/01/15 01:44:31;;;;;;;77.45;34.67;;;;;;;5.22;100.00;98135.25;5042967;28;20508;-82
2023/01/15 01:46:57;;;;;;;81.45;36.30;;;;;;;4.98;100.00;98106.88;5020134;28;20035;-82
2023/01/15 01:49:23;;;;;;;90.63;40.35;;;;;;;5.07;100.00;98136.63;5024056;28;20061;-82
2023/01/15 01:51:54;;;;;;;94.07;42.70;;;;;;;5.03;100.00;98139.38;5029504;28;20037;-82
2023/01/15 01:54:21;;;;;;;98.93;42.60;;;;;;;5.14;100.00;98147.88;5029594;28;20057;-83
2023/01/15 01:56:48;;;;;;;95.63;42.05;;;;;;;5.14;100.00;98147.88;5004332;28;20060;-82
2023/01/15 01:59:14;;;;;;;96.93;38.10;;;;;;;5.12;100.00;98149.72;5026258;28;20025;-82
2023/01/15 02:01:39;;;;;;;89.13;38.22;;;;;;;5.11;100.00;98143.53;5015552;28;20033;-81
2023/01/15 02:04:07;;;;;;;85.03;36.38;;;;;;;5.17;100.00;98153.09;5033250;28;20036;-81
2023/01/15 02:06:33;;;;;;;78.60;35.92;;;;;;;4.96;100.00;98137.81;5028355;28;20033;-81
2023/01/15 02:08:59;;;;;;;84.28;34.80;;;;;;;4.99;100.00;98145.69;5005369;28;20428;-82
2023/01/15 02:11:24;;;;;;;73.95;33.35;;;;;;;5.01;100.00;98142.09;5013460;28;20060;-82
2023/01/15 02:13:59;;;;;;;70.28;30.75;;;;;;;5.01;100.00;98147.41;4998463;28;20120;-81
2023/01/15 02:16:31;;;;;;;69.22;30.02;;;;;;;4.99;100.00;98148.34;5030364;28;20021;-82
2023/01/15 02:19:19;;;;;;;68.37;31.20;;;;;;;4.95;100.00;98136.13;5040285;28;20496;-82
2023/01/15 02:22:10;;;;;;;64.00;29.52;;;;;;;4.97;100.00;98145.75;5045642;28;20033;-81
2023/01/15 02:24:38;;;;;;;69.68;30.05;;;;;;;4.99;100.00;98151.00;5011710;28;20034;-81
2023/01/15 02:27:19;;;;;;;64.13;30.40;;;;;;;4.98;100.00;98141.31;5044419;28;20026;-82
2023/01/15 02:29:55;;;;;;;66.57;29.50;;;;;;;4.97;100.00;98140.44;5010720;28;20117;-82
2023/01/15 02:32:34;;;;;;;55.97;26.92;;;;;;;5.03;100.00;98150.00;5028513;28;20048;-82
2023/01/15 02:35:36;;;;;;;68.70;27.98;;;;;;;5.02;100.00;98153.53;5011515;28;20030;-82
2023/01/15 02:38:06;;;;;;;62.40;26.20;;;;;;;4.99;100.00;98146.56;5028633;28;20025;-83
2023/01/15 02:40:32;;;;;;;67.47;28.27;;;;;;;4.97;100.00;98148.41;5013229;28;20037;-81
2023/01/15 02:42:58;;;;;;;62.88;28.70;;;;;;;4.96;100.00;98149.31;5029109;28;20044;-81
2023/01/15 02:45:32;;;;;;;62.85;27.75;;;;;;;4.95;100.00;98146.72;5028724;28;20116;-81
2023/01/15 02:48:03;;;;;;;65.18;29.73;;;;;;;4.91;100.00;98137.97;5029116;28;20053;-82
2023/01/15 02:50:32;;;;;;;65.57;29.30;;;;;;;4.98;100.00;98151.94;5026085;28;20061;-82
2023/01/15 02:53:04;;;;;;;66.90;29.42;;;;;;;4.98;100.00;98144.84;5028229;28;20112;-82
2023/01/15 02:55:34;;;;;;;61.42;27.92;;;;;;;4.97;100.00;98139.56;5029623;28;20037;-82
2023/01/15 02:58:03;;;;;;;60.72;27.17;;;;;;;4.96;100.00;98144.00;5013371;28;20117;-81
2023/01/15 03:00:32;;;;;;;59.75;28.00;;;;;;;4.92;100.00;98145.03;5029489;28;20076;-81
2023/01/15 03:03:08;;;;;;;65.13;29.27;;;;;;;4.87;100.00;98137.19;5030338;28;20030;-81
2023/01/15 03:05:47;;;;;;;68.20;28.65;;;;;;;4.92;100.00;98142.38;5030249;28;20029;-82
2023/01/15 03:08:13;;;;;;;68.88;30.02;;;;;;;4.96;100.00;98144.00;5030614;28;20056;-82
2023/01/15 03:10:51;;;;;;;66.05;30.50;;;;;;;5.02;100.00;98151.78;5010839;28;20037;-81
2023/01/15 03:13:35;;;;;;;63.03;28.20;;;;;;;4.99;100.00;98145.69;5047340;28;20529;-81
2023/01/15 03:16:39;;;;;;;73.55;30.98;;;;;;;4.99;100.00;98151.00;5032776;28;20077;-81
2023/01/15 03:19:06;;;;;;;70.95;32.50;;;;;;;5.01;100.00;98151.84;5027835;28;20602;-80
2023/01/15 03:21:50;;;;;;;100.40;39.38;;;;;;;5.01;100.00;98143.88;5031052;28;20424;-82
2023/01/15 03:24:41;;;;;;;76.90;33.13;;;;;;;5.07;100.00;98147.22;5039808;28;20116;-81
2023/01/15 03:27:07;;;;;;;71.07;31.85;;;;;;;5.01;100.00;98141.22;5031679;28;20504;-81
2023/01/15 03:29:36;;;;;;;75.05;32.10;;;;;;;5.05;100.00;98142.84;5034041;28;20063;-83
2023/01/15 03:32:03;;;;;;;68.75;31.50;;;;;;;5.17;100.00;98148.66;5017047;28;20097;-81
2023/01/15 03:34:39;;;;;;;74.75;31.27;;;;;;;5.16;100.00;98138.97;5019450;28;20033;-81
2023/01/15 03:37:05;;;;;;;73.47;30.17;;;;;;;5.18;100.00;98141.56;5018627;28;20045;-80
2023/01/15 03:39:30;;;;;;;78.93;31.38;;;;;;;5.13;100.00;98139.06;5047995;28;20025;-81
2023/01/15 03:42:17;;;;;;;76.40;33.67;;;;;;;5.14;100.00;98142.56;5012895;28;20060;-81
2023/01/15 03:45:04;;;;;;;84.63;35.58;;;;;;;5.21;100.00;98154.72;5024178;28;20480;-81
2023/01/15 03:47:44;;;;;;;74.32;32.65;;;;;;;5.20;100.00;98147.72;5023718;28;20037;-80
2023/01/15 03:50:31;;;;;;;76.75;33.38;;;;;;;5.21;100.00;98152.06;5021657;28;20041;-81
2023/01/15 03:53:07;;;;;;;70.97;32.85;;;;;;;5.12;100.00;98141.75;5045716;28;20030;-81
2023/01/15 03:55:39;;;;;;;80.05;33.33;;;;;;;4.95;100.00;98144.06;5028650;28;20045;-82
2023/01/15 03:58:13;;;;;;;76.13;32.47;;;;;;;4.87;100.00;98145.16;5044591;28;20033;-81
2023/01/15 04:00:42;;;;;;;75.75;31.48;;;;;;;4.95;100.00;98144.06;5012804;28;20647;-81
2023/01/15 04:03:09;;;;;;;70.70;32.67;;;;;;;4.97;100.00;98148.41;5020393;28;20033;-83
2023/01/15 04:05:36;;;;;;;70.30;32.33;;;;;;;4.95;100.00;98139.63;5012334;28;20033;-81
2023/01/15 04:08:02;;;;;;;63.17;31.98;;;;;;;5.02;100.00;98153.53;5016993;28;20067;-82
2023/01/15 04:10:28;;;;;;;74.05;34.35;;;;;;;4.96;100.00;98151.97;5048023;28;20091;-82
2023/01/15 04:12:53;;;;;;;73.68;32.13;;;;;;;4.93;100.00;98152.03;5029258;28;20033;-82
2023/01/15 04:15:19;;;;;;;69.80;30.80;;;;;;;4.95;100.00;98147.59;5012613;28;20081;-82
2023/01/15 04:17:44;;;;;;;69.35;30.58;;;;;;;4.85;100.00;98144.34;5012065;28;20030;-82
2023/01/15 04:20:11;;;;;;;68.55;29.10;;;;;;;4.96;100.00;98159.91;5011975;28;20037;-82
2023/01/15 04:22:36;;;;;;;80.35;30.52;;;;;;;4.96;100.00;98154.59;5013744;28;20033;-82
2023/01/15 04:25:03;;;;;;;59.88;29.88;;;;;;;4.87;100.00;98142.50;5011626;28;20029;-82
2023/01/15 04:27:29;;;;;;;62.22;29.80;;;;;;;4.86;100.00;98148.72;5029010;28;20068;-82
2023/01/15 04:29:54;;;;;;;66.35;30.50;;;;;;;4.79;100.00;98155.13;5012115;28;20021;-82
2023/01/15 04:32:20;;;;;;;73.90;30.88;;;;;;;4.74;100.00;98161.44;5028611;28;20508;-82
2023/01/15 04:34:46;;;;;;;69.28;30.33;;;;;;;4.79;100.00;98168.38;5022785;28;20029;-81
2023/01/15 04:37:11;;;;;;;65.03;28.60;;;;;;;4.79;100.00;98163.06;5029105;28;20049;-81
2023/01/15 04:39:37;;;;;;;77.07;31.30;;;;;;;4.85;100.00;98156.72;5004585;28;20064;-81
2023/01/15 04:44:47;;;;;;;75.97;30.05;;;;;;;4.83;100.00;98159.41;5043305;28;20056;-81
2023/01/15 04:47:13;;;;;;;69.78;31.88;;;;;;;4.88;100.00;98153.97;5022853;28;20038;-81
2023/01/15 04:49:38;;;;;;;70.38;30.77;;;;;;;4.91;100.00;98165.34;5040023;28;20434;-82
2023/01/15 04:52:04;;;;;;;81.78;33.05;;;;;;;4.95;100.00;98159.97;5022713;28;20056;-81
2023/01/15 04:54:29;;;;;;;84.97;35.28;;;;;;;4.83;100.00;98143.50;5025440;28;20560;-82
2023/01/15 04:56:55;;;;;;;85.25;35.90;;;;;;;4.77;100.00;98143.69;5046095;28;20029;-82
2023/01/15 04:59:23;;;;;;;76.97;35.10;;;;;;;4.84;100.00;98150.53;5010696;28;20493;-82
2023/01/15 05:01:49;;;;;;;86.25;35.92;;;;;;;4.79;100.00;98149.81;5010254;28;20037;-82
2023/01/15 05:04:15;;;;;;;85.82;36.90;;;;;;;4.68;100.00;98143.94;5008501;28;20033;-76
2023/01/15 05:06:40;;;;;;;86.80;36.15;;;;;;;4.75;100.00;98166.72;4998699;28;20029;-77
2023/01/15 05:09:06;;;;;;;87.38;35.65;;;;;;;4.72;100.00;98150.03;4998595;28;20052;-76
2023/01/15 05:11:37;;;;;;;85.00;35.90;;;;;;;4.70;100.00;98151.88;4998181;28;20408;-77
2023/01/15 05:14:03;;;;;;;87.57;35.00;;;;;;;4.67;100.00;98152.84;5014734;28;20028;-75
2023/01/15 05:16:29;;;;;;;85.07;35.10;;;;;;;4.60;100.00;98143.31;4998315;28;20111;-77
2023/01/15 05:18:58;;;;;;;90.38;36.50;;;;;;;4.61;100.00;98155.66;4998547;28;20091;-77
2023/01/15 05:21:38;;;;;;;86.05;35.97;;;;;;;4.61;100.00;98155.66;5014999;28;20497;-78
2023/01/15 05:24:07;;;;;;;97.22;37.72;;;;;;;4.61;100.00;98168.03;4998397;28;20021;-77
2023/01/15 05:26:33;;;;;;;91.57;34.50;;;;;;;4.65;100.00;98159.06;4998500;28;20025;-77
2023/01/15 05:29:00;;;;;;;80.50;33.30;;;;;;;4.59;100.00;98153.94;5014193;28;20032;-77
2023/01/15 05:31:27;;;;;;;93.03;36.92;;;;;;;4.66;100.00;98164.34;5014865;28;20396;-77
2023/01/15 05:33:55;;;;;;;87.63;35.80;;;;;;;4.68;100.00;98165.16;4998504;28;20032;-77
2023/01/15 05:36:23;;;;;;;75.57;33.30;;;;;;;4.69;100.00;98161.59;5014551;28;20071;-77
2023/01/15 05:38:49;;;;;;;86.82;34.35;;;;;;;4.63;100.00;98152.94;4997468;28;20390;-78
2023/01/15 05:44:04;;;;;;;79.75;31.67;;;;;;;4.67;100.00;98166.06;5016905;28;20094;-78
2023/01/15 05:46:30;;;;;;;80.65;34.13;;;;;;;4.60;100.00;98153.03;5014244;28;20033;-77
2023/01/15 05:49:00;;;;;;;78.43;33.33;;;;;;;4.64;100.00;98158.22;5014110;28;20182;-76
2023/01/15 05:51:26;;;;;;;95.28;38.55;;;;;;;4.63;100.00;98160.91;4997429;28;20508;-77
2023/01/15 05:53:52;;;;;;;95.85;40.42;;;;;;;4.72;100.00;98161.50;5013883;28;20170;-75
2023/01/15 05:56:17;;;;;;;84.85;34.30;;;;;;;4.74;100.00;98164.97;4997609;28;20401;-77
2023/01/15 05:58:43;;;;;;;75.63;32.65;;;;;;;4.78;100.00;98163.09;4997560;28;20080;-78
2023/01/15 06:01:09;;;;;;;80.30;32.28;;;;;;;4.78;100.00;98165.75;4997301;28;20026;-78
2023/01/15 06:03:35;;;;;;;73.50;32.67;;;;;;;4.70;100.00;98158.03;5006360;28;20033;-77
2023/01/15 06:06:01;;;;;;;78.80;32.13;;;;;;;4.67;100.00;98158.13;5014071;28;20048;-78
2023/01/15 06:08:26;;;;;;;77.90;33.17;;;;;;;4.67;100.00;98155.47;5013729;28;20025;-79
2023/01/15 06:10:52;;;;;;;76.50;32.47;;;;;;;4.72;100.00;98156.22;4997433;28;20057;-78
2023/01/15 06:13:18;;;;;;;75.53;34.13;;;;;;;4.78;100.00;98163.97;5013808;28;20025;-78
2023/01/15 06:15:43;;;;;;;87.10;38.10;;;;;;;4.91;100.00;98167.13;5013774;28;20024;-79
2023/01/15 06:18:10;;;;;;;112.88;47.97;;;;;;;4.86;100.00;98148.72;5013567;28;20079;-78
2023/01/15 06:20:40;;;;;;;90.40;38.63;;;;;;;5.01;100.00;98157.13;5014095;28;20029;-78
2023/01/15 06:23:06;;;;;;;87.28;37.50;;;;;;;5.07;100.00;98167.56;4997677;28;20036;-78
2023/01/15 06:25:35;;;;;;;90.78;36.25;;;;;;;5.01;100.00;98143.88;4996914;28;20413;-77
2023/01/15 06:28:02;;;;;;;88.25;37.67;;;;;;;5.14;100.00;98153.16;5031584;28;20021;-77
2023/01/15 06:30:27;;;;;;;96.05;38.60;;;;;;;5.22;100.00;98164.44;4997568;28;20029;-77
2023/01/15 06:32:53;;;;;;;99.28;42.33;;;;;;;5.19;100.00;98157.44;4996949;28;20094;-76
2023/01/15 06:35:18;;;;;;;92.75;40.47;;;;;;;5.39;100.00;98159.44;5012702;28;20033;-76
2023/01/15 06:37:44;;;;;;;85.97;38.63;;;;;;;5.44;100.00;98154.91;5030899;28;20394;-78
2023/01/15 06:40:10;;;;;;;94.30;40.08;;;;;;;5.48;100.00;98143.25;4993498;28;20026;-77
2023/01/15 06:48:05;;;;;;;228.90;109.75;;;;;;;5.76;100.00;98154.69;5012892;28;20052;-78
2023/01/15 06:50:31;;;;;;;266.50;128.57;;;;;;;5.87;100.00;98152.59;5010789;28;20046;-78
2023/01/15 06:52:56;;;;;;;104.18;47.95;;;;;;;5.79;100.00;98133.38;5010278;28;20551;-77
2023/01/15 06:55:22;;;;;;;106.93;44.25;;;;;;;5.71;100.00;98113.31;5031198;28;20436;-75
2023/01/15 06:57:48;;;;;;;100.97;42.17;;;;;;;5.56;100.00;98109.38;4997404;28;20029;-77
2023/01/15 07:00:14;;;;;;;109.78;44.85;;;;;;;5.52;100.00;98121.00;4997031;28;20420;-76
2023/01/15 07:02:40;;;;;;;101.30;44.20;;;;;;;5.33;100.00;98111.91;5013363;28;20037;-77
2023/01/15 07:05:06;;;;;;;109.80;47.95;;;;;;;5.18;100.00;98096.50;5013485;28;20374;-77
2023/01/15 07:07:33;;;;;;;112.90;49.92;;;;;;;5.20;100.00;98110.59;4997085;28;20424;-77
2023/01/15 07:09:58;;;;;;;110.85;43.88;;;;;;;5.05;100.00;98100.44;4997068;28;20540;-77
2023/01/15 07:12:24;;;;;;;98.05;41.65;;;;;;;5.21;100.00;98123.78;5013324;28;20032;-75
2023/01/15 07:14:50;;;;;;;100.32;41.72;;;;;;;5.33;100.00;98133.13;5013539;28;20065;-77
2023/01/15 07:17:15;;;;;;;112.03;44.67;;;;;;;5.36;100.00;98144.50;5014550;28;20123;-77
2023/01/15 07:20:20;;;;;;;149.52;66.07;;;;;;;5.12;100.00;98092.25;5014273;28;20036;-81
2023/01/15 07:23:10;;;;;;;152.77;66.75;;;;;;;5.54;100.00;98143.03;5034752;28;20041;-80
2023/01/15 07:25:38;;;;;;;95.53;40.53;;;;;;;5.37;100.00;98102.94;5001652;28;20112;-83
2023/01/15 07:28:09;;;;;;;148.25;63.00;;;;;;;5.65;100.00;98127.66;5001811;28;20575;-82
2023/01/15 07:30:41;;;;;;;84.47;36.42;;;;;;;5.53;100.00;98092.69;5019191;28;20028;-82
2023/01/15 07:33:07;;;;;;;92.05;36.15;;;;;;;5.49;100.00;98089.28;5034585;28;20033;-80
2023/01/15 07:35:35;;;;;;;97.47;40.20;;;;;;;5.83;100.00;98119.06;5016825;28;20014;-82
2023/01/15 07:38:01;;;;;;;79.47;31.85;;;;;;;5.97;100.00;98103.56;5000796;28;20017;-80
2023/01/15 07:40:27;;;;;;;135.57;57.90;;;;;;;6.14;100.00;98110.09;5016733;28;20036;-80
2023/01/15 07:51:14;;;;;;;63.83;30.60;;;;;;;6.48;100.00;98047.69;5019188;28;20060;-81
2023/01/15 07:53:39;;;;;;;66.10;26.95;;;;;;;6.45;100.00;98039.84;5016234;28;20034;-80
2023/01/15 07:56:05;;;;;;;62.20;27.15;;;;;;;6.48;100.00;98049.50;4999215;28;20038;-81
2023/01/15 07:58:31;;;;;;;70.57;29.27;;;;;;;6.46;100.00;98044.22;5009253;28;20033;-80
2023/01/15 08:00:56;;;;;;;68.13;30.27;;;;;;;6.60;100.00;98037.53;5015771;28;20040;-81
2023/01/15 08:03:22;;;;;;;66.57;29.45;;;;;;;6.41;100.00;98045.31;5015127;28;20025;-80
2023/01/15 08:05:48;;;;;;;62.78;27.80;;;;;;;6.15;100.00;98034.81;4999246;28;20460;-79
2023/01/15 08:08:17;;;;;;;71.78;29.38;;;;;;;6.36;100.00;98050.81;5014393;28;20021;-80
2023/01/15 08:16:11;;;;;;;57.45;26.27;;;;;;;6.47;100.00;98035.34;5017764;28;20609;-79
2023/01/15 08:18:37;;;;;;;71.20;30.75;;;;;;;6.80;100.00;98043.78;5015411;28;20025;-79
2023/01/15 08:21:03;;;;;;;81.10;34.75;;;;;;;6.89;100.00;98027.47;5032754;28;20400;-79
2023/01/15 08:23:28;;;;;;;63.33;27.42;;;;;;;7.09;100.00;98026.69;4998974;28;20025;-78
2023/01/15 08:25:56;;;;;;;62.13;27.42;;;;;;;7.29;100.00;98012.59;4999365;28;20041;-79
2023/01/15 08:28:22;;;;;;;60.08;25.15;;;;;;;7.45;100.00;97997.69;4998679;28;20182;-79
2023/01/15 08:30:47;;;;;;;64.03;24.35;;;;;;;7.48;100.00;97986.91;4998953;28;20120;-80
2023/01/15 08:33:13;;;;;;;52.65;22.08;;;;;;;7.25;100.00;97968.41;5032439;28;20028;-78
2023/01/15 08:35:39;;;;;;;48.10;22.50;;;;;;;7.28;100.00;97955.84;4997675;28;20032;-78
2023/01/15 08:38:08;;;;;;;56.67;23.48;;;;;;;7.29;100.00;97960.22;5013962;28;20031;-80
2023/01/15 08:40:35;;;;;;;67.70;30.75;;;;;;;7.51;100.00;97962.81;5006229;28;20155;-80
2023/01/15 08:43:01;;;;;;;59.65;26.00;;;;;;;7.25;100.00;97941.81;4998422;28;20532;-80
2023/01/15 08:45:26;;;;;;;72.10;30.02;;;;;;;7.17;100.00;97939.44;5014710;28;20036;-80
2023/01/15 08:47:59;;;;;;;76.47;33.40;;;;;;;7.23;100.00;97949.00;4998495;28;20021;-79
2023/01/15 08:50:24;;;;;;;;;;;;;;;7.09;100.00;97952.22;4998683;28;20053;-79
2023/01/15 08:52:50;;;;;;;60.63;27.52;;;;;;;7.01;100.00;97944.53;4997922;28;19927;-80
2023/01/15 08:55:15;;;;;;;74.07;30.23;;;;;;;6.90;100.00;97917.53;5014226;28;20025;-80
2023/01/15 08:57:43;;;;;;;68.97;27.88;;;;;;;6.81;100.00;97941.84;5013938;28;20071;-80
2023/01/15 09:00:10;;;;;;;72.43;31.02;;;;;;;7.18;100.00;97946.50;5013850;28;20025;-79
2023/01/15 09:02:36;;;;;;;69.65;30.38;;;;;;;7.30;100.00;97942.47;5013353;28;20396;-81
2023/01/15 09:05:02;;;;;;;71.60;31.00;;;;;;;7.29;100.00;97932.78;4996996;28;20112;-79
2023/01/15 09:07:27;;;;;;;79.43;31.27;;;;;;;7.40;100.00;97928.72;5014111;28;20550;-80
2023/01/15 09:09:53;;;;;;;79.90;33.05;;;;;;;7.53;100.00;97919.28;4997056;28;20447;-79
2023/01/15 09:12:18;;;;;;;79.43;34.80;;;;;;;7.50;100.00;97910.53;4996990;28;20420;-78
2023/01/15 09:14:44;;;;;;;76.22;31.35;;;;;;;7.61;100.00;97918.91;5013544;28;20416;-80
2023/01/15 09:17:09;;;;;;;67.53;32.55;;;;;;;7.65;100.00;97901.88;4996591;28;20052;-82
2023/01/15 09:19:35;;;;;;;76.30;32.50;;;;;;;7.73;100.00;97906.84;4996131;28;20382;-84
2023/01/15 09:22:00;;;;;;;68.85;30.42;;;;;;;7.97;100.00;97901.28;5012269;28;20183;-79
2023/01/15 09:24:26;;;;;;;81.75;34.83;;;;;;;8.22;100.00;97892.13;5012221;28;20029;-79
2023/01/15 09:26:52;;;;;;;77.13;32.80;;;;;;;8.40;100.00;97891.31;4996769;28;20084;-79
2023/01/15 09:29:18;;;;;;;81.28;34.67;;;;;;;8.59;100.00;97874.34;4996450;28;20044;-78
2023/01/15 09:31:44;;;;;;;71.72;31.17;;;;;;;9.20;100.00;97879.28;4996340;28;20517;-80
2023/01/15 09:34:10;;;;;;;55.17;24.48;;;;;;;9.52;100.00;97856.25;4997818;28;20040;-79
2023/01/15 09:36:35;;;;;;;50.15;22.20;;;;;;;9.88;100.00;97848.94;4995719;28;20457;-78
2023/01/15 09:39:03;;;;;;;47.95;20.15;;;;;;;10.09;100.00;97839.75;4996644;28;20129;-81
2023/01/15 09:42:07;;;;;;;40.22;16.42;;;;;;;9.72;100.00;97806.16;5012752;28;20032;-80
2023/01/15 09:44:47;;;;;;;35.65;16.60;;;;;;;9.88;100.00;97816.00;5012792;28;20033;-78
2023/01/15 09:47:44;;;;;;;34.83;16.77;;;;;;;9.75;100.00;97798.00;5012771;28;20028;-79
2023/01/15 09:50:41;;;;;;;41.28;17.70;;;;;;;9.92;100.00;97786.38;5006630;28;20049;-78
2023/01/15 09:53:29;;;;;;;34.08;16.48;;;;;;;9.49;100.00;97760.31;5012640;28;20033;-78
2023/01/15 09:55:55;;;;;;;41.13;20.02;;;;;;;9.09;100.00;97767.78;5011596;28;20063;-78
2023/01/15 09:58:32;;;;;;;44.88;19.67;;;;;;;9.31;100.00;97788.00;5013025;28;20394;-78
2023/01/15 10:00:58;;;;;;;48.50;20.95;;;;;;;9.55;100.00;97765.31;4995233;28;20037;-79
2023/01/15 10:03:32;;;;;;;39.30;18.88;;;;;;;9.44;100.00;97751.69;4996148;28;20412;-79
2023/01/15 10:06:14;;;;;;;45.05;21.38;;;;;;;9.37;100.00;97744.94;4985911;28;20022;-80
2023/01/15 10:08:50;;;;;;;31.95;15.65;;;;;;;9.50;100.00;97711.31;4996147;28;20064;-80
2023/01/15 10:11:16;;;;;;;13.63;6.68;;;;;;;9.86;100.00;97698.56;5012241;28;20031;-78
2023/01/15 10:13:50;;;;;;;24.05;11.35;;;;;;;9.80;100.00;97656.16;5012323;28;20531;-79
2023/01/15 10:16:25;;;;;;;17.75;8.77;;;;;;;9.85;99.09;97626.50;4995647;28;20048;-79
2023/01/15 10:18:52;;;;;;;10.00;5.93;;;;;;;9.82;96.76;97620.41;4995831;28;20029;-80
2023/01/15 10:21:39;;;;;;;20.60;9.25;;;;;;;9.97;93.50;97602.59;5013391;28;20444;-78
2023/01/15 10:24:11;;;;;;;11.02;5.32;;;;;;;10.53;91.10;97611.75;5006280;28;20022;-79
2023/01/15 10:26:43;;;;;;;7.63;3.70;;;;;;;10.40;86.54;97568.84;5034401;28;20033;-79
2023/01/15 10:29:35;;;;;;;12.82;6.95;;;;;;;11.46;83.22;97593.38;4994222;28;20522;-78
2023/01/15 10:32:08;;;;;;;13.75;6.80;;;;;;;11.34;81.17;97558.41;5008527;28;20491;-80
2023/01/15 10:35:08;;;;;;;14.55;8.48;;;;;;;11.48;80.71;97562.00;5016364;28;20045;-79
2023/01/15 10:37:47;;;;;;;17.40;8.45;;;;;;;11.66;77.19;97545.56;5031091;28;20436;-79
2023/01/15 10:40:25;;;;;;;15.65;7.28;;;;;;;12.38;74.21;97545.13;5017019;28;20402;-80
2023/01/15 10:43:11;;;;;;;10.02;5.55;;;;;;;12.46;72.15;97529.34;5016575;28;20470;-79
2023/01/15 10:45:46;;;;;;;19.80;11.18;;;;;;;12.00;71.40;97498.63;5034930;28;20033;-79
2023/01/15 10:48:23;;;;;;;17.20;7.55;;;;;;;11.32;74.67;97477.31;5017668;28;20021;-79
2023/01/15 10:50:49;;;;;;;18.05;9.27;;;;;;;12.10;74.87;97520.31;5016803;28;20480;-81
2023/01/15 10:53:24;;;;;;;17.50;8.55;;;;;;;13.07;70.52;97509.75;5017154;28;20029;-79
2023/01/15 10:55:53;;;;;;;13.68;6.15;;;;;;;13.55;66.67;97499.94;5016999;28;20486;-82
2023/01/15 10:58:42;;;;;;;16.05;6.82;;;;;;;13.02;65.05;97489.56;5017452;28;20429;-84
2023/01/15 11:01:20;;;;;;;14.80;6.63;;;;;;;12.44;66.72;97504.47;5017183;28;20095;-83
2023/01/15 11:03:46;;;;;;;16.63;7.50;;;;;;;11.94;71.05;97518.69;5013873;28;20022;-83
2023/01/15 11:06:24;;;;;;;16.15;8.00;;;;;;;11.84;71.90;97530.16;5000889;28;20025;-83
2023/01/15 11:08:56;;;;;;;10.32;5.47;;;;;;;12.02;70.80;97523.53;5001092;28;20561;-82
2023/01/15 11:19:38;;;;;;;13.93;7.28;;;;;;;16.69;51.94;97525.63;5020578;28;20504;-77
2023/01/15 11:22:17;;;;;;;9.18;5.20;;;;;;;16.69;50.26;97504.00;5036064;28;20029;-84
2023/01/15 11:24:48;;;;;;;9.27;5.85;;;;;;;16.77;49.49;97475.34;5020868;28;20035;-82
2023/01/15 11:27:18;;;;;;;9.52;5.60;;;;;;;16.49;49.13;97470.59;5018552;28;20069;-83
2023/01/15 11:29:44;;;;;;;10.52;5.25;;;;;;;16.24;50.52;97466.47;5001731;28;20079;-83
2023/01/15 11:32:34;;;;;;;12.35;5.40;;;;;;;16.45;49.63;97474.56;5002184;28;20036;-76
2023/01/15 11:35:15;;;;;;;9.35;4.53;;;;;;;16.54;48.62;97465.69;4999815;28;20474;-82
2023/01/15 11:37:40;;;;;;;9.30;5.38;;;;;;;16.65;50.07;97471.00;5015137;28;20408;-84
2023/01/15 11:40:17;;;;;;;9.43;6.10;;;;;;;17.22;48.02;97464.13;4999767;28;20036;-85
2023/01/15 11:51:07;;;;;;;10.65;5.47;;;;;;;17.20;46.48;97460.69;5019085;28;20523;-83
2023/01/15 11:53:38;;;;;;;14.60;7.97;;;;;;;17.04;46.68;97461.22;5015766;28;20112;-83
2023/01/15 11:56:06;;;;;;;10.50;5.22;;;;;;;16.93;46.56;97466.72;5015805;28;20032;-75
2023/01/15 11:58:33;;;;;;;12.13;5.40;;;;;;;16.56;47.20;97462.84;5015476;28;20100;-76
2023/01/15 12:01:00;;;;;;;12.13;6.75;;;;;;;16.78;47.45;97477.06;5015754;28;20052;-76
2023/01/15 12:03:28;;;;;;;10.75;5.65;;;;;;;17.33;46.72;97472.13;5015274;28;20059;-76
2023/01/15 12:06:06;;;;;;;21.33;8.82;;;;;;;17.35;45.70;97453.91;5015391;28;20056;-75
2023/01/15 12:08:51;;;;;;;10.80;5.60;;;;;;;17.42;45.75;97471.28;4998813;28;20029;-75
2023/01/15 12:11:38;;;;;;;13.85;7.55;;;;;;;17.59;45.61;97462.53;5015851;28;20021;-85
2023/01/15 12:14:29;;;;;;;12.15;6.30;;;;;;;17.43;45.40;97466.75;4999737;28;20029;-84
2023/01/15 12:16:56;;;;;;;10.20;5.22;;;;;;;15.86;47.58;97438.34;4995100;28;20036;-83
2023/01/15 12:19:35;;;;;;;11.15;6.13;;;;;;;15.12;49.83;97458.91;4999507;28;20182;-83